»·PEaware :: N130LM KHRL-0TA7

N130LM :: KHRL-0TA7

FLIGHT INFORMATION

Flight Status: Arrived
Operator: Privately registered:
United States
More flights under this callsign
Pilot: Justin M. (19723)
Aircraft: DASSAULT AVIATION FALCON 50
(FA50)
More flights by this aircraft type
Origin: KHRL Valley Intl
United States
Destination: 0TA7 Alta Vista Ranch
United States
More flights between these airports :: More routes between these airports
Route: +LRD DENSE KOBLE MRTHN
File this flight plan on PilotEdge
Remarks:
Altitude:
(Current/Filed)
36,000ft
Speed:
(Current/Filed)
0kts
Departed: 18-Mar-20 04:12 AM
Arrived: 18-Mar-20 05:09 AM
Distance/Time
Traveled:
405nm/0:57
Distance/Time
To Go:
Arrived

Flight Plot

Page will automatically refresh every two minutes.

Flight plan parsing failed; only flown route is shown


Map Options




Map Legend


Flown Route
Filed Route
Departure Airport
Arrival Airport
Navaid (VOR, NDB)
Fix

Horizontal Profiles

Position Reports

Time Latitude Longitude Heading Altitude Ground
Speed
18-Mar-20 04:10 26.371233 -97.973455 303 18489ft 376kts
18-Mar-20 04:11 26.434695 -98.068570 303 21535ft 392kts
18-Mar-20 04:12 26.501173 -98.168195 303 23968ft 409kts
18-Mar-20 04:13 26.577455 -98.265671 307 26044ft 425kts
18-Mar-20 04:14 26.656871 -98.366956 307 27834ft 437kts
18-Mar-20 04:15 26.738438 -98.470277 307 29333ft 449kts
18-Mar-20 04:16 26.822100 -98.576411 306 30836ft 454kts
18-Mar-20 04:17 26.903427 -98.679678 305 32655ft 447kts
18-Mar-20 04:18 26.985260 -98.783952 305 34375ft 442kts
18-Mar-20 04:19 27.065885 -98.886938 304 35813ft 442kts
18-Mar-20 04:20 27.148771 -98.993279 304 36058ft 464kts
18-Mar-20 04:21 27.235520 -99.104541 304 36045ft 479kts
18-Mar-20 04:22 27.323510 -99.217691 304 36041ft 481kts
18-Mar-20 04:23 27.411567 -99.331260 304 36040ft 481kts
18-Mar-20 04:24 27.507946 -99.437156 318 36039ft 496kts
18-Mar-20 04:25 27.625643 -99.519983 322 36043ft 499kts
18-Mar-20 04:26 27.743753 -99.602459 322 36044ft 499kts
18-Mar-20 04:27 27.862170 -99.685265 321 36051ft 500kts
18-Mar-20 04:28 27.980319 -99.768040 321 36053ft 500kts
18-Mar-20 04:29 28.098561 -99.851110 321 36055ft 500kts
18-Mar-20 04:30 28.209172 -99.929030 321 36057ft 500kts
18-Mar-20 04:31 28.327237 -100.012373 321 36071ft 500kts
18-Mar-20 04:32 28.445258 -100.095981 321 36081ft 500kts
18-Mar-20 04:33 28.563403 -100.179903 321 36080ft 501kts
18-Mar-20 04:34 28.681711 -100.264100 321 36078ft 501kts
18-Mar-20 04:35 28.799519 -100.348208 320 36057ft 501kts
18-Mar-20 04:36 28.917949 -100.432989 320 36054ft 503kts
18-Mar-20 04:37 29.036192 -100.517849 320 36055ft 502kts
18-Mar-20 04:38 29.154025 -100.603783 317 36042ft 499kts
18-Mar-20 04:39 29.255147 -100.708745 306 36055ft 487kts
18-Mar-20 04:40 29.349440 -100.819588 306 36095ft 488kts
18-Mar-20 04:41 29.444242 -100.931148 306 36115ft 487kts
18-Mar-20 04:42 29.538687 -101.042527 306 36069ft 487kts
18-Mar-20 04:43 29.632713 -101.153805 306 36064ft 489kts
18-Mar-20 04:44 29.727631 -101.266391 306 36065ft 488kts
18-Mar-20 04:45 29.821950 -101.378623 306 36065ft 490kts
18-Mar-20 04:46 29.885305 -101.508497 275 36066ft 454kts
18-Mar-20 04:47 29.910692 -101.650724 273 36062ft 453kts
18-Mar-20 04:49 29.936634 -101.798599 273 36078ft 452kts
18-Mar-20 04:49 29.957449 -101.917197 273 36079ft 452kts
18-Mar-20 04:50 29.982268 -102.059273 274 36086ft 452kts
18-Mar-20 04:51 30.006874 -102.201287 274 36087ft 452kts
18-Mar-20 04:52 30.031402 -102.343545 274 36082ft 451kts
18-Mar-20 04:53 30.055829 -102.486691 274 35054ft 457kts
18-Mar-20 04:54 30.080471 -102.631808 274 32575ft 463kts
18-Mar-20 04:55 30.105204 -102.777622 275 30109ft 457kts
18-Mar-20 04:56 30.128999 -102.918663 277 27591ft 441kts
18-Mar-20 04:57 30.151863 -103.055633 278 25069ft 427kts
18-Mar-20 04:58 30.173947 -103.188623 278 22544ft 414kts
18-Mar-20 04:59 30.188254 -103.313632 271 19582ft 367kts
18-Mar-20 05:00 30.193323 -103.425442 271 16552ft 336kts
18-Mar-20 05:01 30.197828 -103.529661 271 13527ft 317kts
18-Mar-20 05:02 30.201772 -103.626751 271 10576ft 307kts
18-Mar-20 05:03 30.204928 -103.724209 258 8057ft 290kts
18-Mar-20 05:04 30.190021 -103.809906 256 7017ft 241kts
18-Mar-20 05:05 30.185770 -103.877628 291 7001ft 175kts
18-Mar-20 05:06 30.179407 -103.921541 197 5940ft 149kts
18-Mar-20 05:07 30.152082 -103.898542 129 4701ft 87kts
18-Mar-20 05:08 30.148305 -103.893147 128 4708ft 0kts
18-Mar-20 05:09 30.148502 -103.893356 305 4708ft 0kts

Navigation Log

Ident Type
Flight plan parsing failed, navigation log unavailable